WEATHER DATA

YESTERDAY
Time Temp. Dewp. Hum. Wind dir Wind speed Wind gust Bar. 1h Prec. 24h Prec.
00:06 10 8.4 90 0 0 1022.9 0.0000 0.0000
00:25 10 8.4 90 0 0 1022.7 0.0000 0.0000
00:36 9.9 8.3 90 0 0 1022.7 0.0000 0.0000
00:48 9.9 8.3 90 0 0 1023 0.0000 0.0000
00:59 9.9 8.5 91 0 0 1023 0.0000 0.0000
01:09 9.9 8.5 91 0 0 1022.8 0.1010 0.1000
01:19 9.8 8.4 91 0 0 1022.6 0.1010 0.1000
01:29 9.7 8.3 91 0 0 1022.4 0.1010 0.1000
01:39 9.7 8.3 91 0 0 1022.7 0.1010 0.1000
01:49 9.7 8.3 91 0 0 1022.6 0.1010 0.1000
01:59 9.7 8.3 91 0 0 1022.4 0.1010 0.1000
02:10 9.7 8.3 91 0 0 1022.2 0.0000 0.1000
02:19 9.7 8.3 91 0 0 1022.2 0.0000 0.1000
02:29 9.7 8.3 91 0 0 1022.1 0.1010 0.2000
02:40 9.6 8.2 91 0 0 1022 0.1010 0.2000
02:50 9.6 8.2 91 0 0 1021.6 0.2020 0.3000
03:00 9.6 8.2 91 0 0 1021.3 0.3030 0.4000
03:10 9.5 8.1 91 0 0 1021.3 0.3030 0.4000
03:20 9.5 8.1 91 0 0 1021.1 0.3030 0.5000
03:30 9.5 8.3 92 0 0 1020.8 0.4040 0.6000
03:40 9.4 8.2 92 0 0 1020.5 0.4040 0.7000
03:51 9.4 8.2 92 0 0 1020.3 0.4040 0.7000
04:00 9.4 8.2 92 0 0 1020.2 0.3030 0.7000
04:10 9.4 8.2 92 0 0 1020.2 0.4040 0.8000
04:20 9.3 8.1 92 0 0 1019.8 0.4040 0.9000
04:31 9.3 8.1 92 0 0 1019.4 0.4040 1.0000
04:41 9.3 8.1 92 0 0 1018.8 0.4040 1.1000
04:51 9.3 8.1 92 0 0 1018.7 0.5050 1.2000
05:01 9.3 8.1 92 0 0 1018.5 0.4040 1.2000
05:11 9.3 8.1 92 0 0 1018.1 0.3030 1.2000
05:26 9.3 8.2 93 0 0 1017.4 0.2020 1.3000
05:37 9.3 8.2 93 0 0 1016.9 0.2020 1.4000
05:46 9.4 8.3 93 0 0 1016.6 0.2020 1.4000
05:56 9.4 8.3 93 0 0 1016.3 0.3030 1.5000
06:06 9.5 8.4 93 0 0 1015.8 0.2020 1.5000
06:17 9.5 8.4 93 0 0 1015.4 0.2020 1.5000
06:27 9.6 8.5 93 0 0 1015.1 0.2020 1.5000
06:36 9.7 8.6 93 0 0 1014.6 0.1010 1.5000
06:47 9.9 8.8 93 0 0 1014.5 0.0000 1.5000
06:57 10 8.9 93 0 0 1014.7 0.1010 1.6000
07:07 10.1 9 93 0 0 1014.6 0.1010 1.6000
07:16 10.2 9.1 93 0 0 1014.1 0.1010 1.6000
07:27 10.2 9.1 93 0 0 1013.6 0.2020 1.7000
07:37 10.3 9.2 93 0 0 1013.6 0.2020 1.7000
07:47 10.4 9.3 93 0 0 1013.3 0.1010 1.7000
07:57 10.4 9.3 93 0 0 1013.1 0.1010 1.7000
08:07 10.5 9.4 93 0 0 1012.7 0.2020 1.8000
08:17 10.6 9.5 93 0 0 1012.5 0.2020 1.8000
08:27 10.7 9.6 93 0 0 1012.7 0.1010 1.8000
08:53 10.9 9.8 93 0 0 1012.8 0.1010 1.8000
09:03 11 9.9 93 0 0 1012.9 0.1010 1.9000
09:13 11.2 10.1 93 0 0 1013 0.1010 1.9000
09:23 11.4 10.3 93 0 0 1013 0.1010 1.9000
09:33 11.6 10.5 93 0 0 1013.4 0.1010 1.9000
09:43 11.8 10.7 93 0 0 1013.3 0.1010 1.9000
09:53 12 10.9 93 0 0 1012.9 0.1010 1.9000
10:03 12.1 11 93 0 0 1012.9 0.0000 1.9000
10:13 12.3 11.2 93 0 0 1013.1 0.0000 1.9000
10:24 12.4 11.3 93 0 0 1012.9 0.0000 1.9000
10:34 12.4 11.1 92 0 0 1013.1 0.0000 1.9000
10:53 12.5 10.9 90 0 0 1012.8 0.0000 1.9000
11:04 12.5 10.9 90 0 0 1012.8 0.0000 1.9000
11:24 12.5 10.7 89 0 0 1012.9 0.0000 1.9000
11:34 12.6 10.8 89 0 0 1012.9 0.0000 1.9000
11:44 12.6 10.8 89 0 0 1012.8 0.0000 1.9000
11:54 12.6 10.8 89 0 0 1013 0.0000 1.9000
12:04 12.6 10.8 89 0 0 1013.2 0.0000 1.9000
12:15 12.6 10.8 89 0 0 1013.1 0.0000 1.9000
12:34 12.7 10.8 88 0 0 1013.2 0.0000 1.9000
12:50 12.7 10.8 88 0 0 1013.1 0.0000 1.9000
13:00 12.7 10.8 88 0 0 1012.9 0.0000 1.9000
13:10 12.8 10.9 88 0 0 1013.1 0.0000 1.9000
13:20 12.8 10.9 88 0 0 1013.4 0.0000 1.9000
13:30 12.9 11 88 0 0 1013.1 0.0000 1.9000
13:40 13 11.1 88 0 0 1012.9 0.0000 1.9000
13:50 13 10.9 87 0 0 1013.5 0.0000 1.9000
14:00 13.2 11.1 87 0 0 1013.2 0.0000 1.9000
14:10 13.3 11.2 87 0 0 1013.3 0.0000 1.9000
14:20 13.3 11 86 0 0 1013.1 0.0000 1.9000
14:31 13.3 11 86 0 0 1013.3 0.0000 1.9000
14:41 13.3 11 86 0 0 1013.5 0.0000 1.9000
14:51 13.4 11.1 86 0 0 1013.6 0.0000 1.9000
15:01 13.4 11.1 86 0 0 1013.7 0.0000 1.9000
15:11 13.5 11 85 0 0 1013.9 0.0000 1.9000
15:21 13.5 11 85 0 0 1014 0.0000 1.9000
15:31 13.6 11.1 85 0 0 1014.3 0.0000 1.9000
15:41 13.6 11.1 85 0 0 1014.3 0.0000 1.9000
15:51 13.5 11 85 0 0 1014.5 0.0000 1.9000
16:06 13.5 11 85 0 0 1014.6 0.0000 1.9000
16:17 13.3 11.2 87 0 0 1015.2 0.3030 2.2000
16:27 12.7 10.6 87 0 0 1015.9 2.1210 4.0000
16:37 12.1 10.2 88 0 0 1016 2.6260 4.5000
16:47 12 10.1 88 0 0 1016.1 2.6260 4.5000
16:58 11.9 10 88 0 0 1016.5 2.6260 4.5000
17:08 11.8 9.7 87 0 0 1017 2.4240 4.5000
17:17 11.8 9.7 87 0 0 1017.3 1.7170 4.5000
17:27 11.7 9.6 87 0 0 1017.6 0.2020 4.5000
17:38 11.6 9.5 87 0 0 1017.9 0.0000 4.5000
17:48 11.4 9 85 0 0 1018.2 0.0000 4.5000
17:58 11.3 8.9 85 0 0 1018.5 0.0000 4.5000
18:08 11.2 8.6 84 0 0 1018.9 0.0000 4.5000
18:18 11 8.2 83 0 0 1019.3 0.0000 4.5000
18:28 10.9 8 82 0 0 1019.5 0.0000 4.5000
18:38 10.7 7.2 79 0 0 1019.9 0.0000 4.5000
18:49 10.5 7 79 0 0 1020.1 0.0000 4.5000
18:58 10.4 6.9 79 0 0 1020.3 0.0000 4.5000
19:08 10.3 6.8 79 0 0 1020.6 0.0000 4.5000
19:18 10.2 6.5 78 0 0 1020.7 0.0000 4.5000
19:29 10 6.2 77 0 0 1021.2 0.0000 4.5000
19:39 9.9 5.7 75 0 0 1021.4 0.0000 4.5000
19:48 9.8 5.2 73 0 0 1021.6 0.0000 4.5000
19:59 9.7 5.1 73 0 0 1022.1 0.0000 4.5000
20:09 9.6 5 73 0 0 1022 0.0000 4.5000
20:19 9.5 5.1 74 0 0 1022.3 0.0000 4.5000
20:34 9.4 5.2 75 0 0 1022.5 0.0000 4.5000
20:44 9.2 5 75 0 0 1022.7 0.0000 4.5000
20:54 9.2 4.6 73 0 0 1022.9 0.0000 4.5000
21:10 9.1 4.1 71 0 0 1023.1 0.0000 4.5000
21:19 9 3.6 69 0 0 1023.4 0.0000 4.5000
21:29 8.9 3.3 68 0 0 1023.4 0.0000 4.5000
21:39 8.8 3 67 0 0 1023.5 0.0000 4.5000
21:50 8.7 2.7 66 0 0 1023.7 0.0000 4.5000
22:00 8.7 2.7 66 0 0 1023.9 0.0000 4.5000
22:09 8.6 2.6 66 0 0 1024.2 0.0000 4.5000
22:35 8.3 2.5 67 0 0 1024.7 0.0000 4.5000
22:56 8 2.5 68 0 0 1024.8 0.0000 4.5000
23:05 7.9 2.4 68 0 0 1024.8 0.0000 4.5000
23:25 7.6 2.3 69 0 0 1024.8 0.0000 4.5000
23:36 7.4 2.3 70 0 0 1024.8 0.0000 4.5000
23:56 7.1 2.2 71 0 0 1024.8 0.0000

DAY STATISTIC

2020-02-23
TEMPERATURE
AVERAGE
10.7
HIGH
13.6
15:31
LOW
7.1
23:56
PRESSURE
AVERAGE
1017.7
HIGH
1024.8
22:56
LOW
1012.5
08:17
DEWPOINT
AVERAGE
8.5
HIGH
11.3
10:24
LOW
2.2
23:56
HUMIDITY
AVERAGE
86
HIGH
93
05:26
LOW
66
21:50
WIND SPEED
AVERAGE
0.0
HIGH
0.0
03:24
WIND GUST
AVERAGE
0.0
HIGH
0.0
03:24
WIND DIRECTION
PREVAILING
%
PRECIPITATION
RAIN HOUR
2.6
RAIN DAY
4.5
TEMPERATURE (°C)
LOW
7.1
HIGH
13.6
AVERAGE
10.7
PRESSURE (hpa)
LOW
1012.5
HIGH
1024.8
AVERAGE
1017.7
DEVICE